Time;durP1;ratioP1;P1;durP2;ratioP2;P2;SDS_P1;SDS_P2;PMS_P1;PMS_P2;Temp;Humidity;BMP_temperature;BMP_pressure;BME280_temperature;BME280_humidity;BME280_pressure;Samples;Min_cycle;Max_cycle;Signal;HPM_P1;HPM_P2
2022/09/26 05:02:23;;;;;;;7.07;6.47;;;;;;;;;;5174323;22;20479;-81
2022/09/26 05:04:50;;;;;;;7.07;6.38;;;;;;;;;;5089727;28;20406;-82
2022/09/26 05:07:17;;;;;;;6.18;5.68;;;;;;;;;;5097672;28;20384;-82
2022/09/26 05:09:43;;;;;;;7.20;6.60;;;;;;;;;;5100837;28;20370;-83
2022/09/26 05:12:11;;;;;;;5.78;5.38;;;;;;;;;;4995280;28;20387;-82
2022/09/26 05:14:37;;;;;;;6.32;5.82;;;;;;;;;;4990167;28;20379;-82
2022/09/26 05:17:03;;;;;;;5.93;5.43;;;;;;;;;;4990140;28;20386;-82
2022/09/26 05:19:29;;;;;;;6.20;5.70;;;;;;;;;;5017220;28;20849;-82
2022/09/26 05:21:55;;;;;;;6.93;6.32;;;;;;;;;;5072065;28;20372;-82
2022/09/26 05:27:06;;;;;;;6.85;6.28;;;;;;;;;;5072146;28;20854;-82
2022/09/26 05:29:32;;;;;;;6.55;6.05;;;;;;;;;;5077825;28;20402;-81
2022/09/26 05:32:00;;;;;;;6.55;5.97;;;;;;;;;;5072188;28;20470;-81
2022/09/26 05:34:26;;;;;;;6.90;6.40;;;;;;;;;;5072000;28;20379;-82
2022/09/26 05:36:52;;;;;;;7.60;6.90;;;;;;;;;;5071245;28;20462;-82
2022/09/26 05:42:06;;;;;;;7.60;6.97;;;;;;;;;;5071193;28;20422;-83
2022/09/26 05:44:32;;;;;;;8.15;7.45;;;;;;;;;;5071534;28;20417;-83
2022/09/26 05:46:58;;;;;;;7.57;6.90;;;;;;;;;;5071496;28;20433;-83
2022/09/26 05:49:25;;;;;;;7.43;6.82;;;;;;;;;;5071081;28;20402;-83
2022/09/26 05:51:52;;;;;;;7.95;7.35;;;;;;;;;;5071759;28;20844;-83
2022/09/26 05:54:18;;;;;;;7.70;7.00;;;;;;;;;;5071438;28;20380;-84
2022/09/26 05:56:44;;;;;;;7.82;7.20;;;;;;;;;;5071908;28;20475;-83
2022/09/26 05:59:10;;;;;;;7.95;7.25;;;;;;;;;;5073894;28;20399;-83
2022/09/26 06:01:36;;;;;;;7.57;6.97;;;;;;;;;;5071636;28;20392;-83
2022/09/26 06:04:02;;;;;;;7.30;6.70;;;;;;;;;;5071632;28;20407;-84
2022/09/26 06:06:28;;;;;;;8.98;7.82;;;;;;;;;;5070851;28;20400;-82
2022/09/26 06:08:55;;;;;;;7.40;6.80;;;;;;;;;;5071557;28;20852;-82
2022/09/26 06:11:29;;;;;;;7.70;7.10;;;;;;;;;;5071236;28;20476;-82
2022/09/26 06:13:57;;;;;;;7.20;6.60;;;;;;;;;;5071795;28;20384;-82
2022/09/26 06:16:23;;;;;;;7.13;6.53;;;;;;;;;;5075347;28;20376;-82
2022/09/26 06:18:51;;;;;;;7.90;7.20;;;;;;;;;;5074460;28;20418;-82
2022/09/26 06:21:18;;;;;;;7.32;6.82;;;;;;;;;;5057189;28;20382;-82
2022/09/26 06:23:44;;;;;;;6.72;6.20;;;;;;;;;;5075036;28;20395;-82
2022/09/26 06:26:13;;;;;;;7.97;7.18;;;;;;;;;;5075107;28;20411;-82
2022/09/26 06:28:39;;;;;;;7.43;6.82;;;;;;;;;;5075165;28;20376;-82
2022/09/26 06:31:09;;;;;;;7.38;6.78;;;;;;;;;;5074575;28;20448;-82
2022/09/26 06:33:35;;;;;;;7.35;6.82;;;;;;;;;;5075045;28;20771;-82
2022/09/26 06:36:02;;;;;;;8.93;8.13;;;;;;;;;;5075032;28;20395;-82
2022/09/26 06:38:28;;;;;;;7.72;7.13;;;;;;;;;;5080328;28;20390;-83
2022/09/26 06:40:55;;;;;;;7.70;7.10;;;;;;;;;;5076108;28;20393;-84
2022/09/26 06:43:21;;;;;;;8.38;7.60;;;;;;;;;;5076948;28;20376;-82
2022/09/26 06:45:48;;;;;;;8.45;7.75;;;;;;;;;;5074449;28;20873;-83
2022/09/26 06:48:17;;;;;;;8.75;7.95;;;;;;;;;;5074585;28;20383;-83
2022/09/26 06:50:43;;;;;;;8.93;8.13;;;;;;;;;;5078448;28;20401;-82
2022/09/26 06:53:10;;;;;;;8.43;7.72;;;;;;;;;;5087624;28;20397;-83
2022/09/26 06:55:36;;;;;;;8.60;7.90;;;;;;;;;;5074505;28;20391;-83
2022/09/26 06:58:02;;;;;;;8.27;7.63;;;;;;;;;;5086161;28;20464;-83
2022/09/26 07:00:34;;;;;;;7.55;6.80;;;;;;;;;;5086612;28;20868;-83
2022/09/26 07:03:00;;;;;;;7.90;7.10;;;;;;;;;;5092148;28;20397;-83
2022/09/26 07:05:26;;;;;;;7.80;7.07;;;;;;;;;;5080836;28;20405;-82
2022/09/26 07:07:53;;;;;;;7.90;7.30;;;;;;;;;;5092928;28;20381;-83
2022/09/26 07:10:20;;;;;;;7.60;7.00;;;;;;;;;;5078197;28;20372;-83
2022/09/26 07:12:46;;;;;;;8.05;7.30;;;;;;;;;;5073123;28;20842;-82
2022/09/26 07:15:14;;;;;;;9.20;8.40;;;;;;;;;;5073446;28;20714;-83
2022/09/26 07:17:41;;;;;;;8.75;7.95;;;;;;;;;;5073455;28;20388;-83
2022/09/26 07:20:11;;;;;;;8.25;7.45;;;;;;;;;;5073494;28;20888;-82
2022/09/26 07:22:37;;;;;;;7.93;7.28;;;;;;;;;;5073257;28;20867;-83
2022/09/26 07:25:03;;;;;;;7.53;6.82;;;;;;;;;;5072823;28;20404;-82
2022/09/26 07:27:29;;;;;;;7.38;6.70;;;;;;;;;;5073124;28;20376;-82
2022/09/26 07:29:55;;;;;;;7.00;6.32;;;;;;;;;;5073319;28;20463;-83
2022/09/26 07:32:21;;;;;;;7.47;6.78;;;;;;;;;;5072755;28;20380;-83
2022/09/26 07:34:48;;;;;;;7.07;6.33;;;;;;;;;;5072814;28;20429;-83
2022/09/26 07:37:16;;;;;;;6.85;6.30;;;;;;;;;;5074062;28;20414;-82
2022/09/26 07:39:42;;;;;;;6.10;5.60;;;;;;;;;;5073101;28;20415;-82
2022/09/26 07:42:08;;;;;;;6.22;5.63;;;;;;;;;;5073396;28;20423;-82
2022/09/26 07:44:35;;;;;;;5.57;5.18;;;;;;;;;;5072654;28;20404;-83
2022/09/26 07:52:30;;;;;;;6.40;5.85;;;;;;;;;;5072615;28;20402;-83
2022/09/26 07:54:56;;;;;;;6.35;5.47;;;;;;;;;;5072190;28;20449;-83
2022/09/26 07:57:23;;;;;;;5.85;5.38;;;;;;;;;;5072953;28;20380;-82
2022/09/26 07:59:49;;;;;;;5.70;5.20;;;;;;;;;;5075667;28;20411;-83
2022/09/26 08:02:22;;;;;;;5.50;5.00;;;;;;;;;;5089090;28;20418;-83
2022/09/26 08:04:48;;;;;;;5.80;5.30;;;;;;;;;;5083241;28;20482;-83
2022/09/26 08:07:15;;;;;;;5.57;5.10;;;;;;;;;;5083390;28;20970;-83
2022/09/26 08:09:41;;;;;;;5.90;4.68;;;;;;;;;;5073774;28;20414;-83
2022/09/26 08:12:07;;;;;;;5.25;4.85;;;;;;;;;;5077476;28;20410;-83
2022/09/26 08:14:33;;;;;;;5.22;4.82;;;;;;;;;;5079900;28;20379;-83
2022/09/26 08:16:59;;;;;;;6.38;5.80;;;;;;;;;;5073018;28;20457;-82
2022/09/26 08:19:24;;;;;;;6.43;5.93;;;;;;;;;;5073084;28;20471;-83
2022/09/26 08:21:50;;;;;;;6.43;5.90;;;;;;;;;;5072885;28;20375;-85
2022/09/26 08:24:16;;;;;;;6.47;5.88;;;;;;;;;;5072830;28;20430;-86
2022/09/26 08:26:42;;;;;;;5.80;5.40;;;;;;;;;;5073199;28;20376;-85
2022/09/26 08:29:10;;;;;;;5.50;5.00;;;;;;;;;;5072766;28;20453;-85
2022/09/26 08:31:37;;;;;;;6.15;5.65;;;;;;;;;;5072787;28;20376;-86
2022/09/26 08:34:03;;;;;;;5.60;5.20;;;;;;;;;;5072733;28;20386;-85
2022/09/26 08:36:29;;;;;;;5.95;5.45;;;;;;;;;;5072553;28;20372;-86
2022/09/26 08:38:56;;;;;;;5.80;5.28;;;;;;;;;;5071733;28;20383;-86
2022/09/26 08:41:40;;;;;;;5.68;5.18;;;;;;;;;;5072613;28;20379;-86
2022/09/26 08:44:27;;;;;;;5.32;4.93;;;;;;;;;;5072475;28;20393;-85
2022/09/26 08:47:01;;;;;;;5.03;4.63;;;;;;;;;;5041215;28;20840;-85
2022/09/26 08:49:38;;;;;;;5.63;5.20;;;;;;;;;;5072338;28;20379;-85
2022/09/26 08:52:09;;;;;;;5.33;4.83;;;;;;;;;;5072292;28;20842;-89
2022/09/26 08:54:38;;;;;;;4.55;4.15;;;;;;;;;;5073194;28;20368;-84
2022/09/26 08:57:21;;;;;;;5.18;4.00;;;;;;;;;;5072035;28;20466;-87
2022/09/26 08:59:48;;;;;;;4.57;4.18;;;;;;;;;;5072278;28;20459;-86
2022/09/26 09:02:30;;;;;;;4.57;4.17;;;;;;;;;;5087058;28;20751;-87
2022/09/26 09:04:56;;;;;;;4.20;3.90;;;;;;;;;;5078252;28;20398;-86
2022/09/26 09:07:23;;;;;;;3.72;3.42;;;;;;;;;;5088629;28;20443;-88
2022/09/26 09:09:51;;;;;;;4.22;3.60;;;;;;;;;;5087544;28;20451;-87
2022/09/26 09:12:35;;;;;;;4.38;3.58;;;;;;;;;;5082974;28;20854;-88
2022/09/26 09:15:06;;;;;;;3.83;3.53;;;;;;;;;;5084052;28;20989;-86
2022/09/26 09:17:35;;;;;;;4.93;4.53;;;;;;;;;;5076847;28;20380;-87
2022/09/26 09:20:20;;;;;;;4.32;3.80;;;;;;;;;;5072065;28;20384;-85
2022/09/26 09:23:04;;;;;;;3.47;3.17;;;;;;;;;;5071480;28;20384;-87
2022/09/26 09:25:32;;;;;;;3.42;3.13;;;;;;;;;;5071950;28;20406;-88
2022/09/26 09:28:14;;;;;;;3.70;3.23;;;;;;;;;;5074196;28;20705;-88
2022/09/26 09:30:42;;;;;;;2.80;2.55;;;;;;;;;;5072027;28;20375;-87
2022/09/26 09:33:41;;;;;;;3.42;2.65;;;;;;;;;;5072092;28;20376;-88
2022/09/26 09:36:33;;;;;;;3.20;3.00;;;;;;;;;;5010001;28;20476;-87
2022/09/26 09:39:03;;;;;;;2.60;2.40;;;;;;;;;;5057137;28;20914;-88
2022/09/26 09:41:43;;;;;;;3.45;2.40;;;;;;;;;;5071890;28;20453;-88
2022/09/26 09:44:29;;;;;;;2.92;2.70;;;;;;;;;;5083985;28;20439;-91
2022/09/26 09:46:55;;;;;;;3.58;2.92;;;;;;;;;;5068142;28;20380;-88
2022/09/26 09:49:22;;;;;;;2.88;2.67;;;;;;;;;;5077618;28;20385;-88
2022/09/26 09:52:07;;;;;;;2.60;2.40;;;;;;;;;;5091238;28;20374;-88
2022/09/26 09:54:54;;;;;;;3.08;2.72;;;;;;;;;;5092854;28;20366;-88
2022/09/26 09:57:20;;;;;;;3.00;2.70;;;;;;;;;;5077519;28;20864;-89
2022/09/26 10:00:01;;;;;;;3.20;2.88;;;;;;;;;;5075320;28;20433;-87
2022/09/26 10:02:39;;;;;;;3.92;3.03;;;;;;;;;;5075673;28;20733;-88
2022/09/26 10:05:16;;;;;;;4.60;3.25;;;;;;;;;;5075825;28;20415;-88
2022/09/26 10:07:43;;;;;;;4.47;3.17;;;;;;;;;;5075202;28;20384;-88
2022/09/26 10:10:19;;;;;;;3.63;2.83;;;;;;;;;;5076564;28;20379;-89
2022/09/26 10:12:46;;;;;;;3.92;3.30;;;;;;;;;;5075152;28;20384;-88
2022/09/26 10:15:26;;;;;;;4.03;3.30;;;;;;;;;;5075563;28;20860;-89
2022/09/26 10:18:02;;;;;;;3.42;3.13;;;;;;;;;;5072667;28;20392;-88
2022/09/26 10:20:40;;;;;;;3.83;3.47;;;;;;;;;;5075034;28;20394;-88
2022/09/26 10:23:15;;;;;;;3.87;3.47;;;;;;;;;;5075030;28;20506;-91
2022/09/26 10:25:45;;;;;;;3.90;3.35;;;;;;;;;;5073456;28;20403;-89
2022/09/26 10:28:21;;;;;;;3.63;3.22;;;;;;;;;;5074877;28;20380;-91
2022/09/26 10:30:48;;;;;;;4.05;3.10;;;;;;;;;;5075133;28;20396;-90
2022/09/26 10:33:25;;;;;;;4.03;3.63;;;;;;;;;;5075339;28;20407;-89
2022/09/26 10:35:52;;;;;;;3.85;3.55;;;;;;;;;;5056758;28;20800;-88
2022/09/26 10:40:43;;;;;;;3.80;3.40;;;;;;;;;;5074972;28;20383;-89
2022/09/26 10:41:27;;;;;;;4.10;3.80;;;;;;;;;;5091741;28;20396;-91
2022/09/26 10:43:54;;;;;;;3.67;3.38;;;;;;;;;;5085764;28;20437;-91
2022/09/26 10:46:22;;;;;;;3.37;3.07;;;;;;;;;;5074786;28;20404;-88
2022/09/26 10:49:00;;;;;;;3.78;3.33;;;;;;;;;;5074498;28;20454;-89
2022/09/26 10:51:38;;;;;;;3.87;3.57;;;;;;;;;;5074678;28;20394;-89
2022/09/26 10:54:06;;;;;;;3.60;3.30;;;;;;;;;;5061636;28;20382;-90
2022/09/26 10:56:36;;;;;;;4.13;3.63;;;;;;;;;;5083902;28;20433;-91
2022/09/26 10:59:08;;;;;;;3.72;3.40;;;;;;;;;;5079111;28;20420;-90
2022/09/26 11:01:41;;;;;;;3.67;3.38;;;;;;;;;;5059053;28;20396;-90
2022/09/26 11:07:08;;;;;;;3.33;3.03;;;;;;;;;;5065258;28;20894;-91
2022/09/26 11:09:34;;;;;;;3.15;2.85;;;;;;;;;;5074837;28;20372;-90
2022/09/26 11:12:22;;;;;;;4.57;4.18;;;;;;;;;;5072479;28;20384;-90
2022/09/26 11:14:53;;;;;;;3.53;3.22;;;;;;;;;;5065635;28;20384;-87
2022/09/26 11:17:19;;;;;;;3.53;3.20;;;;;;;;;;5070981;28;20388;-90
2022/09/26 11:19:56;;;;;;;3.60;3.30;;;;;;;;;;5063522;28;20919;-90
2022/09/26 11:22:31;;;;;;;3.87;3.47;;;;;;;;;;5073951;28;20467;-90
2022/09/26 11:25:11;;;;;;;3.35;3.05;;;;;;;;;;5070741;28;20959;-89
2022/09/26 11:27:43;;;;;;;3.55;3.13;;;;;;;;;;5065869;28;20407;-91
2022/09/26 11:30:20;;;;;;;3.75;3.30;;;;;;;;;;5076318;28;20917;-89
2022/09/26 11:32:49;;;;;;;3.25;2.95;;;;;;;;;;5082626;28;20380;-90
2022/09/26 11:35:42;;;;;;;3.53;3.22;;;;;;;;;;5088180;28;20379;-93
2022/09/26 11:38:38;;;;;;;6.80;3.60;;;;;;;;;;5055464;28;20470;-94
2022/09/26 11:53:16;;;;;;;2.67;2.47;;;;;;;;;;6272242;22;20667;-89
2022/09/26 11:55:54;;;;;;;3.58;3.28;;;;;;;;;;4979510;28;20521;-91
2022/09/26 11:58:42;;;;;;;3.78;2.95;;;;;;;;;;5046053;28;20400;-93
2022/09/26 12:01:50;;;;;;;;;;;;;;;;;;;;;
2022/09/26 12:04:29;;;;;;;3.53;3.22;;;;;;;;;;5017001;28;20437;-88
2022/09/26 12:07:10;;;;;;;3.05;2.85;;;;;;;;;;5008686;28;20419;-88
2022/09/26 12:09:36;;;;;;;3.40;3.10;;;;;;;;;;5010478;28;20864;-88
2022/09/26 12:12:02;;;;;;;3.20;3.00;;;;;;;;;;5010652;28;20897;-90
2022/09/26 12:14:42;;;;;;;2.97;2.65;;;;;;;;;;5010262;28;20802;-88
2022/09/26 12:17:20;;;;;;;2.90;2.70;;;;;;;;;;5010585;28;20461;-89
2022/09/26 12:20:12;;;;;;;3.05;2.75;;;;;;;;;;5011451;28;20421;-90
2022/09/26 12:22:45;;;;;;;3.47;3.17;;;;;;;;;;5011332;28;20420;-89
2022/09/26 12:25:25;;;;;;;2.42;2.15;;;;;;;;;;5010520;28;21426;-88
2022/09/26 12:28:09;;;;;;;2.40;2.20;;;;;;;;;;5011586;28;20377;-89
2022/09/26 12:30:35;;;;;;;2.70;2.50;;;;;;;;;;5006015;28;20718;-89
2022/09/26 12:33:10;;;;;;;2.70;2.50;;;;;;;;;;5030895;28;20379;-89
2022/09/26 12:35:55;;;;;;;2.28;2.08;;;;;;;;;;5030831;28;20387;-89
2022/09/26 12:38:24;;;;;;;2.85;2.65;;;;;;;;;;5030916;28;20773;-90
2022/09/26 12:40:52;;;;;;;3.03;2.63;;;;;;;;;;4991922;28;20392;-88
2022/09/26 12:43:39;;;;;;;2.97;2.42;;;;;;;;;;4971314;28;20408;-89
2022/09/26 12:46:17;;;;;;;2.42;2.20;;;;;;;;;;4971122;28;20896;-89
2022/09/26 12:48:43;;;;;;;3.03;2.80;;;;;;;;;;4973656;28;20385;-89
2022/09/26 12:51:18;;;;;;;3.50;2.72;;;;;;;;;;5049319;28;20400;-89
2022/09/26 12:53:44;;;;;;;3.13;2.83;;;;;;;;;;4970916;28;20400;-89
2022/09/26 12:56:40;;;;;;;3.03;2.83;;;;;;;;;;4971403;28;20388;-88
2022/09/26 12:59:15;;;;;;;3.20;3.00;;;;;;;;;;4978584;28;20396;-87
2022/09/26 13:01:50;;;;;;;3.28;2.50;;;;;;;;;;4969469;28;20748;-88
2022/09/26 13:04:16;;;;;;;3.30;2.40;;;;;;;;;;4971350;28;20403;-88
2022/09/26 13:07:15;;;;;;;2.40;2.20;;;;;;;;;;4971102;28;20480;-88
2022/09/26 13:09:44;;;;;;;2.37;2.10;;;;;;;;;;4992360;28;20428;-88
2022/09/26 13:12:30;;;;;;;3.13;2.15;;;;;;;;;;4970875;28;20384;-89
2022/09/26 13:15:13;;;;;;;3.28;2.10;;;;;;;;;;4970920;28;20380;-88
2022/09/26 13:17:44;;;;;;;2.30;2.13;;;;;;;;;;4971108;28;20389;-88
2022/09/26 13:20:17;;;;;;;2.83;2.30;;;;;;;;;;4970935;28;20380;-87
2022/09/26 13:22:47;;;;;;;3.03;2.75;;;;;;;;;;4970906;28;20380;-88
2022/09/26 13:25:17;;;;;;;2.20;2.00;;;;;;;;;;4961307;28;20900;-88
2022/09/26 13:27:47;;;;;;;2.20;2.10;;;;;;;;;;4971040;28;20384;-87
2022/09/26 13:30:16;;;;;;;3.17;2.20;;;;;;;;;;4970682;28;20380;-88
2022/09/26 13:32:54;;;;;;;2.40;2.13;;;;;;;;;;4970601;28;20389;-87
2022/09/26 13:35:22;;;;;;;3.47;3.17;;;;;;;;;;4970636;28;20380;-87
2022/09/26 13:37:54;;;;;;;2.45;2.05;;;;;;;;;;4970777;28;20889;-87
2022/09/26 13:40:24;;;;;;;2.03;1.80;;;;;;;;;;4970724;28;20408;-87
2022/09/26 13:42:53;;;;;;;2.45;1.50;;;;;;;;;;4970671;28;20385;-90
2022/09/26 13:45:28;;;;;;;2.65;1.60;;;;;;;;;;4970602;28;20763;-90
2022/09/26 13:47:54;;;;;;;1.58;1.48;;;;;;;;;;4970949;28;20380;-88
2022/09/26 13:50:39;;;;;;;1.70;1.40;;;;;;;;;;4970578;28;20458;-88
2022/09/26 13:53:20;;;;;;;1.60;1.50;;;;;;;;;;4963834;28;20370;-87
2022/09/26 13:56:06;;;;;;;1.40;1.30;;;;;;;;;;4969034;28;20424;-89
2022/09/26 13:58:41;;;;;;;1.40;1.20;;;;;;;;;;4976487;28;20852;-88
2022/09/26 14:01:26;;;;;;;3.47;1.42;;;;;;;;;;4973367;28;20395;-88
2022/09/26 14:04:11;;;;;;;1.40;1.10;;;;;;;;;;4981702;28;20468;-88
2022/09/26 14:06:37;;;;;;;2.47;1.33;;;;;;;;;;4956730;28;20427;-88
2022/09/26 14:09:22;;;;;;;1.63;1.52;;;;;;;;;;4970458;28;20384;-89
2022/09/26 14:11:50;;;;;;;2.70;1.60;;;;;;;;;;4970293;28;20404;-89
2022/09/26 14:14:20;;;;;;;1.48;1.30;;;;;;;;;;4970219;28;20462;-87
2022/09/26 14:16:47;;;;;;;1.60;1.50;;;;;;;;;;4970393;28;20471;-88
2022/09/26 14:19:16;;;;;;;3.13;1.60;;;;;;;;;;4970411;28;20392;-89
2022/09/26 14:21:56;;;;;;;3.45;1.52;;;;;;;;;;4970184;28;20892;-88
2022/09/26 14:24:25;;;;;;;1.60;1.50;;;;;;;;;;4970303;28;20400;-88
2022/09/26 14:27:12;;;;;;;1.63;1.30;;;;;;;;;;4970169;28;20427;-88
2022/09/26 14:29:38;;;;;;;1.30;1.20;;;;;;;;;;4976317;28;20384;-90
2022/09/26 14:32:08;;;;;;;1.48;1.20;;;;;;;;;;4969871;28;20373;-88
2022/09/26 14:34:34;;;;;;;1.38;1.27;;;;;;;;;;4970083;28;20455;-88
2022/09/26 14:37:15;;;;;;;1.52;1.30;;;;;;;;;;4972836;28;20476;-89
2022/09/26 14:39:42;;;;;;;1.50;1.38;;;;;;;;;;4973644;28;20372;-88
2022/09/26 14:42:17;;;;;;;1.58;1.48;;;;;;;;;;4973155;28;20390;-87
2022/09/26 14:45:00;;;;;;;2.25;1.23;;;;;;;;;;4973043;28;20376;-87
2022/09/26 14:47:29;;;;;;;2.00;1.40;;;;;;;;;;4973312;28;20376;-87
2022/09/26 14:50:04;;;;;;;1.73;1.30;;;;;;;;;;4973504;28;20439;-89
2022/09/26 14:52:30;;;;;;;1.90;1.55;;;;;;;;;;4973171;28;20722;-87
2022/09/26 14:55:00;;;;;;;1.70;1.50;;;;;;;;;;4973066;28;20757;-87
2022/09/26 14:57:28;;;;;;;3.22;1.65;;;;;;;;;;4973097;28;20441;-88
2022/09/26 14:59:54;;;;;;;1.63;1.52;;;;;;;;;;4976871;28;20431;-88
2022/09/26 15:02:27;;;;;;;1.95;1.50;;;;;;;;;;4962200;28;20405;-89
2022/09/26 15:05:15;;;;;;;1.77;1.30;;;;;;;;;;4973224;28;20434;-91
2022/09/26 15:07:44;;;;;;;1.73;1.50;;;;;;;;;;4968519;28;20388;-91
2022/09/26 15:10:13;;;;;;;2.53;1.55;;;;;;;;;;4971756;28;20442;-92
2022/09/26 15:12:48;;;;;;;1.55;1.45;;;;;;;;;;4974230;28;20420;-90
2022/09/26 15:15:37;;;;;;;1.92;1.50;;;;;;;;;;4972764;28;20384;-89
2022/09/26 15:18:22;;;;;;;2.87;2.20;;;;;;;;;;4999479;28;20387;-89
2022/09/26 15:20:50;;;;;;;2.28;1.55;;;;;;;;;;4972763;28;20472;-91
2022/09/26 15:23:18;;;;;;;2.50;2.10;;;;;;;;;;4976017;28;20460;-91
2022/09/26 15:25:45;;;;;;;4.00;2.03;;;;;;;;;;4983216;28;20412;-92
2022/09/26 15:28:11;;;;;;;2.40;2.20;;;;;;;;;;4974345;28;20735;-92
2022/09/26 15:30:39;;;;;;;2.28;2.08;;;;;;;;;;4977099;28;20413;-89
2022/09/26 15:33:06;;;;;;;2.20;1.80;;;;;;;;;;4978952;28;20497;-90
2022/09/26 15:35:32;;;;;;;2.20;2.00;;;;;;;;;;4959479;28;20398;-89
2022/09/26 15:38:00;;;;;;;2.63;2.42;;;;;;;;;;5032470;28;20671;-91
2022/09/26 15:40:27;;;;;;;3.42;2.50;;;;;;;;;;4981997;28;20422;-90
2022/09/26 15:43:10;;;;;;;2.60;2.40;;;;;;;;;;4963800;28;20398;-90
2022/09/26 15:45:45;;;;;;;2.13;1.85;;;;;;;;;;4973349;28;20909;-89
2022/09/26 15:48:20;;;;;;;2.15;1.95;;;;;;;;;;4961559;28;20402;-91
2022/09/26 15:50:46;;;;;;;2.08;1.88;;;;;;;;;;5052953;28;20389;-91
2022/09/26 15:53:30;;;;;;;2.90;2.35;;;;;;;;;;4972219;28;20401;-89
2022/09/26 15:56:17;;;;;;;2.10;1.88;;;;;;;;;;4974316;28;20431;-91
2022/09/26 15:58:43;;;;;;;1.77;1.67;;;;;;;;;;4978116;28;20396;-91
2022/09/26 16:01:13;;;;;;;2.35;1.70;;;;;;;;;;4988293;28;20376;-89
2022/09/26 16:03:58;;;;;;;2.20;1.80;;;;;;;;;;4972427;28;20381;-89
2022/09/26 16:06:34;;;;;;;1.80;1.70;;;;;;;;;;4971846;28;20417;-87
2022/09/26 16:09:04;;;;;;;2.40;1.52;;;;;;;;;;4972217;28;20869;-85
2022/09/26 16:11:31;;;;;;;1.85;1.40;;;;;;;;;;4972313;28;20391;-86
2022/09/26 16:13:59;;;;;;;2.20;1.60;;;;;;;;;;4971743;28;20804;-87
2022/09/26 16:16:30;;;;;;;1.63;1.50;;;;;;;;;;4970427;28;20393;-87
2022/09/26 16:18:59;;;;;;;1.75;1.42;;;;;;;;;;4971850;28;20438;-85
2022/09/26 16:21:32;;;;;;;3.15;1.67;;;;;;;;;;4971557;28;20389;-86
2022/09/26 16:23:59;;;;;;;1.85;1.75;;;;;;;;;;4972081;28;20416;-85
2022/09/26 16:26:39;;;;;;;1.70;1.60;;;;;;;;;;4971503;28;20420;-86
2022/09/26 16:29:06;;;;;;;2.50;2.30;;;;;;;;;;4971664;28;20451;-89
2022/09/26 16:31:35;;;;;;;2.65;2.20;;;;;;;;;;4971150;28;20754;-85
2022/09/26 16:34:02;;;;;;;3.20;1.85;;;;;;;;;;4971857;28;20381;-84
2022/09/26 16:36:30;;;;;;;1.92;1.83;;;;;;;;;;4971332;28;20394;-82
2022/09/26 16:38:58;;;;;;;2.10;1.90;;;;;;;;;;4971549;28;20384;-86
2022/09/26 16:41:30;;;;;;;2.28;1.90;;;;;;;;;;4971468;28;20389;-86
2022/09/26 16:43:57;;;;;;;2.13;1.92;;;;;;;;;;4967443;28;20435;-85
2022/09/26 16:46:25;;;;;;;2.28;2.10;;;;;;;;;;4963227;28;20412;-89
2022/09/26 16:48:51;;;;;;;2.22;2.10;;;;;;;;;;4971293;28;20392;-86
2022/09/26 16:51:17;;;;;;;2.35;2.15;;;;;;;;;;4971183;28;20745;-86
2022/09/26 16:53:44;;;;;;;2.40;2.20;;;;;;;;;;4971096;28;20877;-90
2022/09/26 16:56:12;;;;;;;2.80;2.10;;;;;;;;;;4971292;28;20392;-85
2022/09/26 16:58:40;;;;;;;2.40;2.20;;;;;;;;;;4974415;28;20388;-86
2022/09/26 17:03:58;;;;;;;2.78;2.15;;;;;;;;;;4975972;28;20392;-86
2022/09/26 17:06:24;;;;;;;2.25;2.05;;;;;;;;;;4970046;28;20416;-87
2022/09/26 17:08:50;;;;;;;2.65;2.08;;;;;;;;;;4971203;28;20389;-86
2022/09/26 17:11:16;;;;;;;2.33;2.13;;;;;;;;;;4971183;28;20893;-87
2022/09/26 17:13:42;;;;;;;2.38;2.17;;;;;;;;;;4967186;28;20487;-85
2022/09/26 17:16:09;;;;;;;2.03;1.83;;;;;;;;;;5034521;28;20448;-86
2022/09/26 17:18:35;;;;;;;2.88;2.50;;;;;;;;;;4970803;28;20396;-87
2022/09/26 17:21:01;;;;;;;2.88;2.42;;;;;;;;;;4966892;28;20891;-86
2022/09/26 17:23:28;;;;;;;4.55;4.15;;;;;;;;;;5012499;28;20411;-86
2022/09/26 17:26:09;;;;;;;4.63;4.22;;;;;;;;;;4978070;28;20420;-92
2022/09/26 19:57:00;;;;;;;3.47;3.17;;;;;;;;;;5049490;22;20438;-90
2022/09/26 19:59:34;;;;;;;3.00;2.70;;;;;;;;;;5005899;28;20797;-91
2022/09/26 20:02:04;;;;;;;3.17;2.88;;;;;;;;;;5616395;23;20457;-92
2022/09/26 20:04:39;;;;;;;2.80;2.60;;;;;;;;;;5097578;28;20427;-93
2022/09/26 20:07:09;;;;;;;3.08;2.42;;;;;;;;;;5104877;28;20470;-93
2022/09/26 20:15:42;;;;;;;2.80;2.50;;;;;;;;;;5075839;28;20350;-91
2022/09/26 20:18:12;;;;;;;2.92;2.70;;;;;;;;;;5058479;28;20949;-92
2022/09/26 20:20:38;;;;;;;3.17;2.55;;;;;;;;;;5073411;28;20431;-92
2022/09/26 20:26:45;;;;;;;3.03;1.92;;;;;;;;;;5073394;28;20398;-92
2022/09/26 20:35:19;;;;;;;2.03;1.83;;;;;;;;;;5077124;28;20365;-91
2022/09/26 20:37:45;;;;;;;2.17;1.73;;;;;;;;;;5082808;28;20745;-92
2022/09/26 20:49:34;;;;;;;2.40;1.25;;;;;;;;;;5069059;28;20349;-93
2022/09/26 20:55:23;;;;;;;1.90;1.40;;;;;;;;;;5080176;28;20395;-91
2022/09/26 21:01:03;;;;;;;1.90;1.40;;;;;;;;;;5087281;28;20826;-91
2022/09/26 21:37:42;;;;;;;2.13;1.35;;;;;;;;;;5078008;28;20357;-90
2022/09/26 21:58:49;;;;;;;2.00;1.33;;;;;;;;;;5076333;28;20433;-92
